sensor_id;sensor_type;location;lat;lon;timestamp;temperature;humidity
23783;DHT22;12071;50.850;4.446;2024-01-16T00:00:34;2.40;99.90
23783;DHT22;12071;50.850;4.446;2024-01-16T00:03:00;2.20;99.90
23783;DHT22;12071;50.850;4.446;2024-01-16T00:05:25;2.40;99.90
23783;DHT22;12071;50.850;4.446;2024-01-16T00:07:51;2.40;99.90
23783;DHT22;12071;50.850;4.446;2024-01-16T00:10:17;2.10;99.90
23783;DHT22;12071;50.850;4.446;2024-01-16T00:12:43;2.00;99.90
23783;DHT22;12071;50.850;4.446;2024-01-16T00:15:09;1.80;99.90
23783;DHT22;12071;50.850;4.446;2024-01-16T00:17:35;1.80;99.90
23783;DHT22;12071;50.850;4.446;2024-01-16T00:20:01;2.00;99.90
23783;DHT22;12071;50.850;4.446;2024-01-16T00:22:27;1.90;99.90
23783;DHT22;12071;50.850;4.446;2024-01-16T00:24:53;1.90;99.90
23783;DHT22;12071;50.850;4.446;2024-01-16T00:27:18;1.90;99.90
23783;DHT22;12071;50.850;4.446;2024-01-16T00:29:44;1.70;99.90
23783;DHT22;12071;50.850;4.446;2024-01-16T00:32:10;1.80;99.90
23783;DHT22;12071;50.850;4.446;2024-01-16T00:34:36;1.90;99.90
23783;DHT22;12071;50.850;4.446;2024-01-16T00:37:01;1.90;99.90
23783;DHT22;12071;50.850;4.446;2024-01-16T00:39:27;1.90;99.90
23783;DHT22;12071;50.850;4.446;2024-01-16T00:41:53;1.80;99.90
23783;DHT22;12071;50.850;4.446;2024-01-16T00:44:18;1.90;99.90
23783;DHT22;12071;50.850;4.446;2024-01-16T00:46:44;1.80;99.90
23783;DHT22;12071;50.850;4.446;2024-01-16T00:49:09;1.80;99.90
23783;DHT22;12071;50.850;4.446;2024-01-16T00:51:35;1.80;99.90
23783;DHT22;12071;50.850;4.446;2024-01-16T00:54:01;1.80;99.90
23783;DHT22;12071;50.850;4.446;2024-01-16T00:56:26;1.70;99.90
23783;DHT22;12071;50.850;4.446;2024-01-16T00:58:53;1.60;99.90
23783;DHT22;12071;50.850;4.446;2024-01-16T01:01:19;1.60;99.90
23783;DHT22;12071;50.850;4.446;2024-01-16T01:03:48;1.60;99.90
23783;DHT22;12071;50.850;4.446;2024-01-16T01:06:14;1.70;99.90
23783;DHT22;12071;50.850;4.446;2024-01-16T01:08:40;2.00;99.90
23783;DHT22;12071;50.850;4.446;2024-01-16T01:11:05;2.10;99.90
23783;DHT22;12071;50.850;4.446;2024-01-16T01:13:31;2.00;99.90
23783;DHT22;12071;50.850;4.446;2024-01-16T01:15:57;2.00;99.90
23783;DHT22;12071;50.850;4.446;2024-01-16T01:18:22;1.90;99.90
23783;DHT22;12071;50.850;4.446;2024-01-16T01:20:48;1.90;99.90
23783;DHT22;12071;50.850;4.446;2024-01-16T01:23:14;1.80;99.90
23783;DHT22;12071;50.850;4.446;2024-01-16T01:25:40;1.70;99.90
23783;DHT22;12071;50.850;4.446;2024-01-16T01:28:05;1.90;99.90
23783;DHT22;12071;50.850;4.446;2024-01-16T01:30:32;1.80;99.90
23783;DHT22;12071;50.850;4.446;2024-01-16T01:32:58;1.80;99.90
23783;DHT22;12071;50.850;4.446;2024-01-16T01:35:23;1.60;99.90
23783;DHT22;12071;50.850;4.446;2024-01-16T01:37:49;1.70;99.90
23783;DHT22;12071;50.850;4.446;2024-01-16T01:40:15;1.60;99.90
23783;DHT22;12071;50.850;4.446;2024-01-16T01:42:42;1.40;99.90
23783;DHT22;12071;50.850;4.446;2024-01-16T01:45:09;1.40;99.90
23783;DHT22;12071;50.850;4.446;2024-01-16T01:47:36;1.50;99.90
23783;DHT22;12071;50.850;4.446;2024-01-16T01:50:02;1.40;99.90
23783;DHT22;12071;50.850;4.446;2024-01-16T01:52:30;1.40;99.90
23783;DHT22;12071;50.850;4.446;2024-01-16T01:54:56;1.50;99.90
23783;DHT22;12071;50.850;4.446;2024-01-16T01:57:23;1.40;99.90
23783;DHT22;12071;50.850;4.446;2024-01-16T01:59:49;1.40;99.90
23783;DHT22;12071;50.850;4.446;2024-01-16T02:02:16;1.60;99.90
23783;DHT22;12071;50.850;4.446;2024-01-16T02:04:43;1.50;99.90
23783;DHT22;12071;50.850;4.446;2024-01-16T02:07:10;1.40;99.90
23783;DHT22;12071;50.850;4.446;2024-01-16T02:09:35;1.40;99.90
23783;DHT22;12071;50.850;4.446;2024-01-16T02:12:01;1.50;99.90
23783;DHT22;12071;50.850;4.446;2024-01-16T02:14:28;1.60;99.90
23783;DHT22;12071;50.850;4.446;2024-01-16T02:16:53;1.70;99.90
23783;DHT22;12071;50.850;4.446;2024-01-16T02:19:19;1.70;99.90
23783;DHT22;12071;50.850;4.446;2024-01-16T02:21:48;1.60;99.90
23783;DHT22;12071;50.850;4.446;2024-01-16T02:24:16;1.60;99.90
23783;DHT22;12071;50.850;4.446;2024-01-16T02:26:42;1.70;99.90
23783;DHT22;12071;50.850;4.446;2024-01-16T02:29:08;1.60;42.10
23783;DHT22;12071;50.850;4.446;2024-01-16T02:31:35;1.60;77.60
23783;DHT22;12071;50.850;4.446;2024-01-16T02:34:01;1.70;99.90
23783;DHT22;12071;50.850;4.446;2024-01-16T02:36:28;1.60;81.10
23783;DHT22;12071;50.850;4.446;2024-01-16T02:38:57;1.50;63.90
23783;DHT22;12071;50.850;4.446;2024-01-16T02:41:22;1.40;99.90
23783;DHT22;12071;50.850;4.446;2024-01-16T02:43:48;1.30;99.90
23783;DHT22;12071;50.850;4.446;2024-01-16T02:46:14;1.40;99.90
23783;DHT22;12071;50.850;4.446;2024-01-16T02:48:40;1.60;89.00
23783;DHT22;12071;50.850;4.446;2024-01-16T02:51:08;1.70;6.00
23783;DHT22;12071;50.850;4.446;2024-01-16T02:53:34;1.60;1.00
23783;DHT22;12071;50.850;4.446;2024-01-16T02:55:59;1.50;14.70
23783;DHT22;12071;50.850;4.446;2024-01-16T02:58:29;1.60;13.00
23783;DHT22;12071;50.850;4.446;2024-01-16T03:00:56;1.80;1.00
23783;DHT22;12071;50.850;4.446;2024-01-16T03:03:23;1.60;1.00
23783;DHT22;12071;50.850;4.446;2024-01-16T03:05:50;1.60;1.00
23783;DHT22;12071;50.850;4.446;2024-01-16T03:08:15;1.60;1.00
23783;DHT22;12071;50.850;4.446;2024-01-16T03:10:41;1.80;1.00
23783;DHT22;12071;50.850;4.446;2024-01-16T03:13:07;1.80;1.00
23783;DHT22;12071;50.850;4.446;2024-01-16T03:15:33;1.80;1.00
23783;DHT22;12071;50.850;4.446;2024-01-16T03:17:59;1.70;99.90
23783;DHT22;12071;50.850;4.446;2024-01-16T03:20:28;1.60;99.90
23783;DHT22;12071;50.850;4.446;2024-01-16T03:22:54;1.30;1.00
23783;DHT22;12071;50.850;4.446;2024-01-16T03:25:20;1.30;1.00
23783;DHT22;12071;50.850;4.446;2024-01-16T03:27:46;1.50;1.00
23783;DHT22;12071;50.850;4.446;2024-01-16T03:30:12;1.70;1.00
23783;DHT22;12071;50.850;4.446;2024-01-16T03:32:38;1.60;1.00
23783;DHT22;12071;50.850;4.446;2024-01-16T03:35:05;1.70;1.00
23783;DHT22;12071;50.850;4.446;2024-01-16T03:37:31;1.80;1.00
23783;DHT22;12071;50.850;4.446;2024-01-16T03:39:57;1.80;1.00
23783;DHT22;12071;50.850;4.446;2024-01-16T03:42:23;1.70;1.00
23783;DHT22;12071;50.850;4.446;2024-01-16T03:44:48;1.60;1.00
23783;DHT22;12071;50.850;4.446;2024-01-16T03:47:15;1.70;1.00
23783;DHT22;12071;50.850;4.446;2024-01-16T03:49:41;1.60;1.00
23783;DHT22;12071;50.850;4.446;2024-01-16T03:52:07;1.50;1.00
23783;DHT22;12071;50.850;4.446;2024-01-16T03:54:32;1.50;1.00
23783;DHT22;12071;50.850;4.446;2024-01-16T03:56:58;1.70;1.00
23783;DHT22;12071;50.850;4.446;2024-01-16T03:59:24;1.70;1.00
23783;DHT22;12071;50.850;4.446;2024-01-16T04:01:49;1.80;1.00
23783;DHT22;12071;50.850;4.446;2024-01-16T04:04:15;1.90;99.90
23783;DHT22;12071;50.850;4.446;2024-01-16T04:06:41;1.70;99.90
23783;DHT22;12071;50.850;4.446;2024-01-16T04:09:08;1.50;1.00
23783;DHT22;12071;50.850;4.446;2024-01-16T04:11:35;1.30;1.00
23783;DHT22;12071;50.850;4.446;2024-01-16T04:14:00;1.30;1.00
23783;DHT22;12071;50.850;4.446;2024-01-16T04:16:26;1.30;1.00
23783;DHT22;12071;50.850;4.446;2024-01-16T04:18:52;1.20;1.00
23783;DHT22;12071;50.850;4.446;2024-01-16T04:21:18;1.10;1.00
23783;DHT22;12071;50.850;4.446;2024-01-16T04:23:44;1.00;1.00
23783;DHT22;12071;50.850;4.446;2024-01-16T04:26:09;1.10;1.00
23783;DHT22;12071;50.850;4.446;2024-01-16T04:28:35;1.30;1.00
23783;DHT22;12071;50.850;4.446;2024-01-16T04:31:03;1.40;1.00
23783;DHT22;12071;50.850;4.446;2024-01-16T04:33:29;1.20;1.00
23783;DHT22;12071;50.850;4.446;2024-01-16T04:35:55;1.00;1.00
23783;DHT22;12071;50.850;4.446;2024-01-16T04:38:21;1.10;1.00
23783;DHT22;12071;50.850;4.446;2024-01-16T04:40:47;1.20;1.00
23783;DHT22;12071;50.850;4.446;2024-01-16T04:43:12;1.20;1.00
23783;DHT22;12071;50.850;4.446;2024-01-16T04:45:39;1.00;1.00
23783;DHT22;12071;50.850;4.446;2024-01-16T04:48:05;1.10;1.00
23783;DHT22;12071;50.850;4.446;2024-01-16T04:50:30;1.10;1.00
23783;DHT22;12071;50.850;4.446;2024-01-16T04:52:59;1.10;1.00
23783;DHT22;12071;50.850;4.446;2024-01-16T04:55:26;1.30;1.00
23783;DHT22;12071;50.850;4.446;2024-01-16T04:57:52;1.40;1.00
23783;DHT22;12071;50.850;4.446;2024-01-16T05:00:18;1.40;1.00
23783;DHT22;12071;50.850;4.446;2024-01-16T05:02:44;1.30;99.90
23783;DHT22;12071;50.850;4.446;2024-01-16T05:05:10;1.10;1.00
23783;DHT22;12071;50.850;4.446;2024-01-16T05:07:35;1.00;1.00
23783;DHT22;12071;50.850;4.446;2024-01-16T05:10:01;1.20;1.00
23783;DHT22;12071;50.850;4.446;2024-01-16T05:12:27;1.10;1.00
23783;DHT22;12071;50.850;4.446;2024-01-16T05:14:53;1.20;1.00
23783;DHT22;12071;50.850;4.446;2024-01-16T05:17:19;1.00;1.00
23783;DHT22;12071;50.850;4.446;2024-01-16T05:19:44;1.00;1.00
23783;DHT22;12071;50.850;4.446;2024-01-16T05:22:11;0.90;1.00
23783;DHT22;12071;50.850;4.446;2024-01-16T05:24:36;0.90;1.00
23783;DHT22;12071;50.850;4.446;2024-01-16T05:27:02;1.10;1.00
23783;DHT22;12071;50.850;4.446;2024-01-16T05:29:30;1.00;1.00
23783;DHT22;12071;50.850;4.446;2024-01-16T05:31:56;0.90;1.00
23783;DHT22;12071;50.850;4.446;2024-01-16T05:34:22;0.80;1.00
23783;DHT22;12071;50.850;4.446;2024-01-16T05:36:48;0.70;1.00
23783;DHT22;12071;50.850;4.446;2024-01-16T05:39:14;0.80;1.00
23783;DHT22;12071;50.850;4.446;2024-01-16T05:41:40;0.80;1.00
23783;DHT22;12071;50.850;4.446;2024-01-16T05:44:05;0.80;1.00
23783;DHT22;12071;50.850;4.446;2024-01-16T05:46:31;0.80;1.00
23783;DHT22;12071;50.850;4.446;2024-01-16T05:48:57;0.70;1.00
23783;DHT22;12071;50.850;4.446;2024-01-16T05:51:23;0.60;1.00
23783;DHT22;12071;50.850;4.446;2024-01-16T05:53:49;0.50;1.00
23783;DHT22;12071;50.850;4.446;2024-01-16T05:56:15;0.50;1.00
23783;DHT22;12071;50.850;4.446;2024-01-16T05:58:40;0.60;1.00
23783;DHT22;12071;50.850;4.446;2024-01-16T06:01:06;0.60;1.00
23783;DHT22;12071;50.850;4.446;2024-01-16T06:03:32;0.60;1.00
23783;DHT22;12071;50.850;4.446;2024-01-16T06:05:58;0.60;1.00
23783;DHT22;12071;50.850;4.446;2024-01-16T06:08:24;0.30;1.00
23783;DHT22;12071;50.850;4.446;2024-01-16T06:10:50;0.30;8.40
23783;DHT22;12071;50.850;4.446;2024-01-16T06:13:19;0.50;47.40
23783;DHT22;12071;50.850;4.446;2024-01-16T06:15:45;0.60;1.00
23783;DHT22;12071;50.850;4.446;2024-01-16T06:18:11;0.50;1.00
23783;DHT22;12071;50.850;4.446;2024-01-16T06:20:36;0.60;1.00
23783;DHT22;12071;50.850;4.446;2024-01-16T06:23:02;0.50;1.00
23783;DHT22;12071;50.850;4.446;2024-01-16T06:25:29;0.70;1.00
23783;DHT22;12071;50.850;4.446;2024-01-16T06:27:55;0.80;1.00
23783;DHT22;12071;50.850;4.446;2024-01-16T06:30:21;0.90;1.00
23783;DHT22;12071;50.850;4.446;2024-01-16T06:32:48;0.90;1.00
23783;DHT22;12071;50.850;4.446;2024-01-16T06:35:15;0.80;99.90
23783;DHT22;12071;50.850;4.446;2024-01-16T06:37:40;0.80;99.90
23783;DHT22;12071;50.850;4.446;2024-01-16T06:40:07;0.80;1.00
23783;DHT22;12071;50.850;4.446;2024-01-16T06:42:33;0.70;99.90
23783;DHT22;12071;50.850;4.446;2024-01-16T06:44:59;0.60;1.00
23783;DHT22;12071;50.850;4.446;2024-01-16T06:47:24;0.60;1.00
23783;DHT22;12071;50.850;4.446;2024-01-16T06:49:50;0.70;1.00
23783;DHT22;12071;50.850;4.446;2024-01-16T06:52:16;0.60;99.90
23783;DHT22;12071;50.850;4.446;2024-01-16T06:54:41;0.70;1.00
23783;DHT22;12071;50.850;4.446;2024-01-16T06:57:07;0.70;99.90
23783;DHT22;12071;50.850;4.446;2024-01-16T06:59:32;0.80;99.90
23783;DHT22;12071;50.850;4.446;2024-01-16T07:01:58;0.80;99.90
23783;DHT22;12071;50.850;4.446;2024-01-16T07:04:24;0.70;99.90
23783;DHT22;12071;50.850;4.446;2024-01-16T07:06:49;0.60;99.90
23783;DHT22;12071;50.850;4.446;2024-01-16T07:09:15;0.70;99.90
23783;DHT22;12071;50.850;4.446;2024-01-16T07:11:42;0.60;99.90
23783;DHT22;12071;50.850;4.446;2024-01-16T07:14:09;0.50;99.90
23783;DHT22;12071;50.850;4.446;2024-01-16T07:16:35;0.60;1.00
23783;DHT22;12071;50.850;4.446;2024-01-16T07:19:01;0.70;99.90
23783;DHT22;12071;50.850;4.446;2024-01-16T07:21:27;0.60;99.90
23783;DHT22;12071;50.850;4.446;2024-01-16T07:23:54;0.50;1.00
23783;DHT22;12071;50.850;4.446;2024-01-16T07:26:19;0.50;1.00
23783;DHT22;12071;50.850;4.446;2024-01-16T07:28:45;0.20;1.00
23783;DHT22;12071;50.850;4.446;2024-01-16T07:31:13;0.30;1.00
23783;DHT22;12071;50.850;4.446;2024-01-16T07:33:39;0.30;1.00
23783;DHT22;12071;50.850;4.446;2024-01-16T07:36:06;0.50;1.00
23783;DHT22;12071;50.850;4.446;2024-01-16T07:38:31;0.60;1.00
23783;DHT22;12071;50.850;4.446;2024-01-16T07:40:57;0.60;1.00
23783;DHT22;12071;50.850;4.446;2024-01-16T07:43:23;0.70;1.00
23783;DHT22;12071;50.850;4.446;2024-01-16T07:45:49;0.70;99.90
23783;DHT22;12071;50.850;4.446;2024-01-16T07:48:15;0.70;99.90
23783;DHT22;12071;50.850;4.446;2024-01-16T07:50:41;0.60;99.90
23783;DHT22;12071;50.850;4.446;2024-01-16T07:53:06;0.50;1.00
23783;DHT22;12071;50.850;4.446;2024-01-16T07:55:32;0.60;1.00
23783;DHT22;12071;50.850;4.446;2024-01-16T07:57:58;0.70;99.90
23783;DHT22;12071;50.850;4.446;2024-01-16T08:00:23;0.60;99.90
23783;DHT22;12071;50.850;4.446;2024-01-16T08:02:49;0.60;99.90
23783;DHT22;12071;50.850;4.446;2024-01-16T08:05:15;0.60;99.90
23783;DHT22;12071;50.850;4.446;2024-01-16T08:07:42;0.70;99.90
23783;DHT22;12071;50.850;4.446;2024-01-16T08:10:09;0.70;99.90
23783;DHT22;12071;50.850;4.446;2024-01-16T08:12:34;0.70;99.90
23783;DHT22;12071;50.850;4.446;2024-01-16T08:15:01;0.50;99.90
23783;DHT22;12071;50.850;4.446;2024-01-16T08:17:27;0.60;99.90
23783;DHT22;12071;50.850;4.446;2024-01-16T08:19:52;0.70;99.90
23783;DHT22;12071;50.850;4.446;2024-01-16T08:22:18;0.70;99.90
23783;DHT22;12071;50.850;4.446;2024-01-16T08:24:44;0.80;99.90
23783;DHT22;12071;50.850;4.446;2024-01-16T08:27:10;0.70;99.90
23783;DHT22;12071;50.850;4.446;2024-01-16T08:29:36;0.70;99.90
23783;DHT22;12071;50.850;4.446;2024-01-16T08:32:01;0.70;99.90
23783;DHT22;12071;50.850;4.446;2024-01-16T08:34:27;0.70;99.90
23783;DHT22;12071;50.850;4.446;2024-01-16T08:36:52;0.90;99.90
23783;DHT22;12071;50.850;4.446;2024-01-16T08:39:22;1.10;99.90
23783;DHT22;12071;50.850;4.446;2024-01-16T08:41:48;1.10;1.00
23783;DHT22;12071;50.850;4.446;2024-01-16T08:44:14;1.10;1.00
23783;DHT22;12071;50.850;4.446;2024-01-16T08:46:40;1.00;2.10
23783;DHT22;12071;50.850;4.446;2024-01-16T08:49:06;1.00;1.00
23783;DHT22;12071;50.850;4.446;2024-01-16T08:51:31;1.00;1.00
23783;DHT22;12071;50.850;4.446;2024-01-16T08:53:57;1.10;1.00
23783;DHT22;12071;50.850;4.446;2024-01-16T08:56:23;1.20;1.00
23783;DHT22;12071;50.850;4.446;2024-01-16T08:58:48;1.10;99.90
23783;DHT22;12071;50.850;4.446;2024-01-16T09:01:14;1.20;99.90
23783;DHT22;12071;50.850;4.446;2024-01-16T09:03:40;1.40;99.90
23783;DHT22;12071;50.850;4.446;2024-01-16T09:06:06;1.70;99.90
23783;DHT22;12071;50.850;4.446;2024-01-16T09:08:32;1.70;1.00
23783;DHT22;12071;50.850;4.446;2024-01-16T09:10:57;1.60;1.00
23783;DHT22;12071;50.850;4.446;2024-01-16T09:13:23;1.50;1.00
23783;DHT22;12071;50.850;4.446;2024-01-16T09:15:49;1.30;99.90
23783;DHT22;12071;50.850;4.446;2024-01-16T09:18:15;1.20;99.90
23783;DHT22;12071;50.850;4.446;2024-01-16T09:20:42;1.30;99.90
23783;DHT22;12071;50.850;4.446;2024-01-16T09:23:08;1.40;99.90
23783;DHT22;12071;50.850;4.446;2024-01-16T09:25:34;1.50;1.00
23783;DHT22;12071;50.850;4.446;2024-01-16T09:28:01;1.40;29.80
23783;DHT22;12071;50.850;4.446;2024-01-16T09:30:26;1.40;99.90
23783;DHT22;12071;50.850;4.446;2024-01-16T09:32:52;1.30;70.50
23783;DHT22;12071;50.850;4.446;2024-01-16T09:35:18;1.40;99.90
23783;DHT22;12071;50.850;4.446;2024-01-16T09:37:44;1.40;4.70
23783;DHT22;12071;50.850;4.446;2024-01-16T09:40:10;1.40;1.00
23783;DHT22;12071;50.850;4.446;2024-01-16T09:42:36;1.50;1.00
23783;DHT22;12071;50.850;4.446;2024-01-16T09:45:02;1.70;1.00
23783;DHT22;12071;50.850;4.446;2024-01-16T09:47:30;1.50;99.90
23783;DHT22;12071;50.850;4.446;2024-01-16T09:49:59;1.50;44.10
23783;DHT22;12071;50.850;4.446;2024-01-16T09:52:25;1.50;1.00
23783;DHT22;12071;50.850;4.446;2024-01-16T09:54:51;1.70;1.00
23783;DHT22;12071;50.850;4.446;2024-01-16T09:57:19;1.50;99.90
23783;DHT22;12071;50.850;4.446;2024-01-16T09:59:48;1.40;40.80
23783;DHT22;12071;50.850;4.446;2024-01-16T10:02:14;1.30;54.10
23783;DHT22;12071;50.850;4.446;2024-01-16T10:04:43;1.30;99.90
23783;DHT22;12071;50.850;4.446;2024-01-16T10:07:11;1.50;99.90
23783;DHT22;12071;50.850;4.446;2024-01-16T10:09:38;1.70;1.00
23783;DHT22;12071;50.850;4.446;2024-01-16T10:12:08;1.80;99.90
23783;DHT22;12071;50.850;4.446;2024-01-16T10:14:36;1.90;99.90
23783;DHT22;12071;50.850;4.446;2024-01-16T10:17:03;1.90;1.00
23783;DHT22;12071;50.850;4.446;2024-01-16T10:19:37;2.10;75.00
23783;DHT22;12071;50.850;4.446;2024-01-16T10:22:12;2.20;99.90
23783;DHT22;12071;50.850;4.446;2024-01-16T10:24:38;2.30;1.00
23783;DHT22;12071;50.850;4.446;2024-01-16T10:27:03;2.40;99.90
23783;DHT22;12071;50.850;4.446;2024-01-16T10:29:29;2.30;99.90
23783;DHT22;12071;50.850;4.446;2024-01-16T10:31:57;2.50;1.00
23783;DHT22;12071;50.850;4.446;2024-01-16T10:34:23;2.50;1.00
23783;DHT22;12071;50.850;4.446;2024-01-16T10:36:51;2.40;99.90
23783;DHT22;12071;50.850;4.446;2024-01-16T10:39:19;2.20;99.90
23783;DHT22;12071;50.850;4.446;2024-01-16T10:41:54;2.50;1.00
23783;DHT22;12071;50.850;4.446;2024-01-16T10:44:21;2.40;99.90
23783;DHT22;12071;50.850;4.446;2024-01-16T10:46:46;2.20;1.00
23783;DHT22;12071;50.850;4.446;2024-01-16T10:49:12;2.40;99.90
23783;DHT22;12071;50.850;4.446;2024-01-16T10:51:38;2.30;1.00
23783;DHT22;12071;50.850;4.446;2024-01-16T10:54:12;2.30;99.90
23783;DHT22;12071;50.850;4.446;2024-01-16T10:56:44;2.40;79.90
23783;DHT22;12071;50.850;4.446;2024-01-16T10:59:18;2.40;99.90
23783;DHT22;12071;50.850;4.446;2024-01-16T11:01:49;2.80;1.00
23783;DHT22;12071;50.850;4.446;2024-01-16T11:04:18;2.90;99.90
23783;DHT22;12071;50.850;4.446;2024-01-16T11:06:51;3.00;99.90
23783;DHT22;12071;50.850;4.446;2024-01-16T11:09:17;3.00;99.90
23783;DHT22;12071;50.850;4.446;2024-01-16T11:11:46;3.10;1.00
23783;DHT22;12071;50.850;4.446;2024-01-16T11:14:15;3.20;1.00
23783;DHT22;12071;50.850;4.446;2024-01-16T11:16:42;3.20;1.00
23783;DHT22;12071;50.850;4.446;2024-01-16T11:19:09;3.20;99.90
23783;DHT22;12071;50.850;4.446;2024-01-16T11:21:36;2.90;1.00
23783;DHT22;12071;50.850;4.446;2024-01-16T11:24:02;3.00;1.00
23783;DHT22;12071;50.850;4.446;2024-01-16T11:28:58;3.00;55.70
23783;DHT22;12071;50.850;4.446;2024-01-16T11:31:32;3.10;1.00
23783;DHT22;12071;50.850;4.446;2024-01-16T11:33:59;2.90;1.00
23783;DHT22;12071;50.850;4.446;2024-01-16T11:39:20;2.80;99.90
23783;DHT22;12071;50.850;4.446;2024-01-16T11:41:50;3.00;99.90
23783;DHT22;12071;50.850;4.446;2024-01-16T11:47:07;3.10;99.90
23783;DHT22;12071;50.850;4.446;2024-01-16T11:49:35;3.30;1.00
23783;DHT22;12071;50.850;4.446;2024-01-16T11:52:01;3.40;99.90
23783;DHT22;12071;50.850;4.446;2024-01-16T11:54:27;3.00;99.90
23783;DHT22;12071;50.850;4.446;2024-01-16T12:02:20;3.60;1.00
23783;DHT22;12071;50.850;4.446;2024-01-16T12:04:55;3.70;99.90
23783;DHT22;12071;50.850;4.446;2024-01-16T12:07:22;3.60;29.20
23783;DHT22;12071;50.850;4.446;2024-01-16T12:09:48;3.60;99.90
23783;DHT22;12071;50.850;4.446;2024-01-16T12:12:15;3.80;26.50
23783;DHT22;12071;50.850;4.446;2024-01-16T12:14:51;4.00;1.00
23783;DHT22;12071;50.850;4.446;2024-01-16T12:17:17;3.70;1.00
23783;DHT22;12071;50.850;4.446;2024-01-16T12:19:45;3.40;1.00
23783;DHT22;12071;50.850;4.446;2024-01-16T12:22:15;3.30;99.90
23783;DHT22;12071;50.850;4.446;2024-01-16T12:24:42;3.60;99.90
23783;DHT22;12071;50.850;4.446;2024-01-16T12:27:08;3.60;99.90
23783;DHT22;12071;50.850;4.446;2024-01-16T12:29:34;3.80;1.20
23783;DHT22;12071;50.850;4.446;2024-01-16T12:32:10;3.60;99.90
23783;DHT22;12071;50.850;4.446;2024-01-16T12:34:49;3.80;1.00
23783;DHT22;12071;50.850;4.446;2024-01-16T12:37:15;4.10;1.00
23783;DHT22;12071;50.850;4.446;2024-01-16T12:39:41;4.00;1.00
23783;DHT22;12071;50.850;4.446;2024-01-16T12:42:10;4.00;1.00
23783;DHT22;12071;50.850;4.446;2024-01-16T12:44:36;4.00;99.90
23783;DHT22;12071;50.850;4.446;2024-01-16T12:47:02;3.80;1.00
23783;DHT22;12071;50.850;4.446;2024-01-16T12:49:28;4.20;1.00
23783;DHT22;12071;50.850;4.446;2024-01-16T12:52:21;4.50;99.90
23783;DHT22;12071;50.850;4.446;2024-01-16T12:55:01;4.10;99.90
23783;DHT22;12071;50.850;4.446;2024-01-16T12:57:27;4.00;99.90
23783;DHT22;12071;50.850;4.446;2024-01-16T12:59:52;4.00;99.90
23783;DHT22;12071;50.850;4.446;2024-01-16T13:02:22;3.80;99.90
23783;DHT22;12071;50.850;4.446;2024-01-16T13:04:59;3.90;99.90
23783;DHT22;12071;50.850;4.446;2024-01-16T13:07:26;4.00;99.90
23783;DHT22;12071;50.850;4.446;2024-01-16T13:10:13;4.20;99.90
23783;DHT22;12071;50.850;4.446;2024-01-16T13:12:43;4.20;99.90
23783;DHT22;12071;50.850;4.446;2024-01-16T13:15:09;4.20;99.90
23783;DHT22;12071;50.850;4.446;2024-01-16T13:17:36;4.40;99.90
23783;DHT22;12071;50.850;4.446;2024-01-16T13:20:03;4.70;32.70
23783;DHT22;12071;50.850;4.446;2024-01-16T13:22:35;4.80;1.00
23783;DHT22;12071;50.850;4.446;2024-01-16T13:25:00;4.30;1.00
23783;DHT22;12071;50.850;4.446;2024-01-16T13:27:26;4.70;1.00
23783;DHT22;12071;50.850;4.446;2024-01-16T13:29:55;4.60;1.00
23783;DHT22;12071;50.850;4.446;2024-01-16T13:32:20;4.30;1.00
23783;DHT22;12071;50.850;4.446;2024-01-16T13:34:46;4.60;1.00
23783;DHT22;12071;50.850;4.446;2024-01-16T13:37:19;4.50;99.90
23783;DHT22;12071;50.850;4.446;2024-01-16T13:39:46;4.40;1.00
23783;DHT22;12071;50.850;4.446;2024-01-16T13:42:12;4.50;1.00
23783;DHT22;12071;50.850;4.446;2024-01-16T13:44:38;4.70;1.00
23783;DHT22;12071;50.850;4.446;2024-01-16T13:47:04;4.60;99.90
23783;DHT22;12071;50.850;4.446;2024-01-16T13:49:30;4.80;99.90
23783;DHT22;12071;50.850;4.446;2024-01-16T13:51:56;4.80;99.90
23783;DHT22;12071;50.850;4.446;2024-01-16T13:54:21;4.80;99.90
23783;DHT22;12071;50.850;4.446;2024-01-16T13:56:47;4.90;99.90
23783;DHT22;12071;50.850;4.446;2024-01-16T13:59:12;4.70;99.90
23783;DHT22;12071;50.850;4.446;2024-01-16T14:01:38;4.10;99.90
23783;DHT22;12071;50.850;4.446;2024-01-16T14:04:04;4.40;99.90
23783;DHT22;12071;50.850;4.446;2024-01-16T14:06:30;4.60;1.00
23783;DHT22;12071;50.850;4.446;2024-01-16T14:08:56;4.80;99.90
23783;DHT22;12071;50.850;4.446;2024-01-16T14:11:22;4.60;99.90
23783;DHT22;12071;50.850;4.446;2024-01-16T14:13:47;4.70;99.90
23783;DHT22;12071;50.850;4.446;2024-01-16T14:16:13;4.70;99.90
23783;DHT22;12071;50.850;4.446;2024-01-16T14:18:39;4.60;99.90
23783;DHT22;12071;50.850;4.446;2024-01-16T14:21:05;5.00;99.90
23783;DHT22;12071;50.850;4.446;2024-01-16T14:23:30;5.10;99.90
23783;DHT22;12071;50.850;4.446;2024-01-16T14:25:57;5.30;99.90
23783;DHT22;12071;50.850;4.446;2024-01-16T14:28:22;5.20;99.90
23783;DHT22;12071;50.850;4.446;2024-01-16T14:30:52;4.90;99.90
23783;DHT22;12071;50.850;4.446;2024-01-16T14:33:18;5.00;99.90
23783;DHT22;12071;50.850;4.446;2024-01-16T14:35:44;5.30;99.90
23783;DHT22;12071;50.850;4.446;2024-01-16T14:38:09;5.50;99.90
23783;DHT22;12071;50.850;4.446;2024-01-16T14:40:36;5.80;99.90
23783;DHT22;12071;50.850;4.446;2024-01-16T14:43:01;5.70;97.70
23783;DHT22;12071;50.850;4.446;2024-01-16T14:45:31;5.80;99.90
23783;DHT22;12071;50.850;4.446;2024-01-16T14:47:57;5.90;76.00
23783;DHT22;12071;50.850;4.446;2024-01-16T14:50:23;6.00;18.10
23783;DHT22;12071;50.850;4.446;2024-01-16T14:52:50;6.60;32.40
23783;DHT22;12071;50.850;4.446;2024-01-16T14:55:17;7.30;1.00
23783;DHT22;12071;50.850;4.446;2024-01-16T14:57:43;8.20;1.00
23783;DHT22;12071;50.850;4.446;2024-01-16T15:00:13;8.70;1.00
23783;DHT22;12071;50.850;4.446;2024-01-16T15:02:45;8.60;1.00
23783;DHT22;12071;50.850;4.446;2024-01-16T15:05:16;8.30;1.00
23783;DHT22;12071;50.850;4.446;2024-01-16T15:07:42;8.20;1.00
23783;DHT22;12071;50.850;4.446;2024-01-16T15:10:09;8.10;99.90
23783;DHT22;12071;50.850;4.446;2024-01-16T15:12:43;7.00;1.00
23783;DHT22;12071;50.850;4.446;2024-01-16T15:15:12;6.80;1.00
23783;DHT22;12071;50.850;4.446;2024-01-16T15:17:39;6.30;1.00
23783;DHT22;12071;50.850;4.446;2024-01-16T15:20:06;5.60;1.00
23783;DHT22;12071;50.850;4.446;2024-01-16T15:22:42;5.30;1.00
23783;DHT22;12071;50.850;4.446;2024-01-16T15:25:10;4.90;1.00
23783;DHT22;12071;50.850;4.446;2024-01-16T15:27:37;4.80;1.00
23783;DHT22;12071;50.850;4.446;2024-01-16T15:30:04;4.60;1.00
23783;DHT22;12071;50.850;4.446;2024-01-16T15:32:30;4.30;1.00
23783;DHT22;12071;50.850;4.446;2024-01-16T15:34:57;4.40;33.90
23783;DHT22;12071;50.850;4.446;2024-01-16T15:37:22;4.10;14.30
23783;DHT22;12071;50.850;4.446;2024-01-16T15:39:48;4.00;87.90
23783;DHT22;12071;50.850;4.446;2024-01-16T15:42:13;3.80;94.80
23783;DHT22;12071;50.850;4.446;2024-01-16T15:44:39;3.90;99.90
23783;DHT22;12071;50.850;4.446;2024-01-16T15:47:05;3.60;99.90
23783;DHT22;12071;50.850;4.446;2024-01-16T15:49:31;3.80;99.90
23783;DHT22;12071;50.850;4.446;2024-01-16T15:51:57;3.80;99.90
23783;DHT22;12071;50.850;4.446;2024-01-16T15:54:26;3.70;99.90
23783;DHT22;12071;50.850;4.446;2024-01-16T15:56:58;3.70;99.90
23783;DHT22;12071;50.850;4.446;2024-01-16T15:59:24;3.50;99.90
23783;DHT22;12071;50.850;4.446;2024-01-16T16:01:51;3.50;99.90